createdAt,value
2022-08-08T00:02:30.546Z,17.29
2022-08-08T00:04:53.191Z,17.23
2022-08-08T00:07:30.115Z,17.19
2022-08-08T00:10:07.321Z,17.16
2022-08-08T00:12:48.584Z,17.11
2022-08-08T00:15:57.157Z,17.08
2022-08-08T00:18:24.240Z,17.05
2022-08-08T00:21:00.773Z,17.02
2022-08-08T00:23:43.047Z,16.99
2022-08-08T00:26:21.629Z,16.96
2022-08-08T00:29:00.493Z,16.95
2022-08-08T00:32:20.453Z,16.93
2022-08-08T00:35:06.098Z,16.93
2022-08-08T00:37:57.147Z,16.90
2022-08-08T00:41:11.219Z,16.88
2022-08-08T00:44:19.456Z,16.86
2022-08-08T00:47:23.445Z,16.83
2022-08-08T00:50:19.339Z,16.79
2022-08-08T00:53:06.704Z,16.75
2022-08-08T00:56:26.996Z,16.73
2022-08-08T00:59:43.840Z,16.71
2022-08-08T01:03:18.236Z,16.65
2022-08-08T01:06:04.571Z,16.57
2022-08-08T01:09:35.390Z,16.52
2022-08-08T01:12:39.510Z,16.47
2022-08-08T01:15:54.735Z,16.42
2022-08-08T01:18:52.854Z,16.38
2022-08-08T01:22:12.380Z,16.32
2022-08-08T01:24:59.823Z,16.26
2022-08-08T01:28:07.593Z,16.22
2022-08-08T01:32:14.863Z,16.14
2022-08-08T01:34:43.384Z,16.07
2022-08-08T01:37:58.070Z,16.00
2022-08-08T01:40:35.667Z,15.97
2022-08-08T01:43:11.902Z,15.95
2022-08-08T01:46:01.697Z,15.95
2022-08-08T01:48:51.247Z,15.95
2022-08-08T01:52:44.147Z,15.94
2022-08-08T01:55:26.173Z,15.92
2022-08-08T01:58:04.547Z,15.92
2022-08-08T02:00:40.817Z,15.90
2022-08-08T02:03:56.248Z,15.90
2022-08-08T02:06:32.804Z,15.87
2022-08-08T02:09:17.389Z,15.84
2022-08-08T02:11:59.052Z,15.80
2022-08-08T02:14:55.533Z,15.74
2022-08-08T02:17:42.653Z,15.64
2022-08-08T02:21:01.822Z,15.55
2022-08-08T02:23:20.719Z,15.49
2022-08-08T02:26:00.574Z,15.45
2022-08-08T02:28:48.598Z,15.46
2022-08-08T02:31:59.307Z,15.45
2022-08-08T02:35:06.486Z,15.44
2022-08-08T02:37:52.632Z,15.43
2022-08-08T02:40:40.820Z,15.43
2022-08-08T02:44:38.105Z,15.40
2022-08-08T02:46:58.998Z,15.38
2022-08-08T02:50:18.206Z,15.34
2022-08-08T02:53:00.427Z,15.32
2022-08-08T02:56:13.712Z,15.28
2022-08-08T02:59:56.864Z,15.18
2022-08-08T03:02:59.717Z,15.12
2022-08-08T03:06:02.046Z,15.09
2022-08-08T03:09:13.490Z,15.09
2022-08-08T03:12:14.274Z,15.08
2022-08-08T03:15:58.111Z,15.07
2022-08-08T03:18:04.846Z,15.04
2022-08-08T03:20:46.995Z,15.05
2022-08-08T03:23:22.312Z,15.02
2022-08-08T03:25:52.889Z,15.00
2022-08-08T03:28:33.111Z,14.95
2022-08-08T03:31:25.131Z,14.90
2022-08-08T03:33:55.885Z,14.87
2022-08-08T03:36:30.430Z,14.86
2022-08-08T03:39:14.341Z,14.83
2022-08-08T03:42:27.824Z,14.82
2022-08-08T03:44:35.140Z,14.82
2022-08-08T03:47:19.174Z,14.78
2022-08-08T03:50:00.793Z,14.77
2022-08-08T03:52:33.817Z,14.76
2022-08-08T03:55:55.159Z,14.75
2022-08-08T03:58:31.401Z,14.75
2022-08-08T04:01:01.552Z,14.74
2022-08-08T04:03:58.370Z,14.71
2022-08-08T04:06:29.715Z,14.68
2022-08-08T04:08:58.551Z,14.66
2022-08-08T04:11:48.360Z,14.61
2022-08-08T04:14:34.684Z,14.57
2022-08-08T04:17:15.386Z,14.59
2022-08-08T04:19:43.958Z,14.59
2022-08-08T04:22:12.112Z,14.59
2022-08-08T04:24:44.775Z,14.55
2022-08-08T04:28:03.423Z,14.53
2022-08-08T04:30:17.360Z,14.53
2022-08-08T04:32:48.060Z,14.53
2022-08-08T04:35:18.409Z,14.51
2022-08-08T04:37:51.081Z,14.50
2022-08-08T04:40:19.618Z,14.46
2022-08-08T04:42:57.177Z,14.41
2022-08-08T04:45:26.341Z,14.39
2022-08-08T04:47:54.876Z,14.37
2022-08-08T04:50:25.537Z,14.34
2022-08-08T04:53:00.476Z,14.34
2022-08-08T04:55:47.519Z,14.34
2022-08-08T04:58:23.050Z,14.34
2022-08-08T05:00:51.715Z,14.34
2022-08-08T05:04:10.694Z,14.35
2022-08-08T05:06:13.032Z,14.33
2022-08-08T05:08:42.351Z,14.34
2022-08-08T05:11:22.629Z,14.31
2022-08-08T05:13:54.853Z,14.27
2022-08-08T05:16:51.147Z,14.24
2022-08-08T05:20:12.631Z,14.22
2022-08-08T05:22:03.499Z,14.23
2022-08-08T05:24:33.126Z,14.20
2022-08-08T05:27:01.236Z,14.23
2022-08-08T05:29:30.733Z,14.24
2022-08-08T05:32:04.075Z,14.24
2022-08-08T05:34:37.609Z,14.22
2022-08-08T05:37:15.789Z,14.20
2022-08-08T05:39:51.263Z,14.19
2022-08-08T05:42:29.502Z,14.22
2022-08-08T05:45:10.298Z,14.22
2022-08-08T05:47:59.851Z,14.24
2022-08-08T05:50:33.619Z,14.25
2022-08-08T05:53:54.441Z,14.28
2022-08-08T05:56:09.545Z,14.31
2022-08-08T05:58:56.780Z,14.34
2022-08-08T06:01:56.190Z,14.34
2022-08-08T06:04:23.662Z,14.35
2022-08-08T06:06:56.562Z,14.34
2022-08-08T06:09:59.106Z,14.35
2022-08-08T06:12:30.558Z,14.34
2022-08-08T06:15:03.361Z,14.35
2022-08-08T06:17:51.093Z,14.36
2022-08-08T06:20:21.884Z,14.38
2022-08-08T06:22:51.126Z,14.40
2022-08-08T06:25:19.242Z,14.42
2022-08-08T06:28:16.089Z,14.48
2022-08-08T06:30:46.279Z,14.51
2022-08-08T06:33:17.461Z,14.56
2022-08-08T06:36:10.126Z,14.61
2022-08-08T06:38:40.101Z,14.66
2022-08-08T06:41:13.146Z,14.70
2022-08-08T06:43:47.686Z,14.75
2022-08-08T06:46:25.845Z,14.79
2022-08-08T06:49:00.829Z,14.82
2022-08-08T06:51:47.093Z,14.86
2022-08-08T06:54:17.605Z,14.93
2022-08-08T06:56:51.264Z,14.96
2022-08-08T06:59:20.696Z,15.01
2022-08-08T07:02:26.553Z,15.06
2022-08-08T07:04:54.808Z,15.11
2022-08-08T07:07:33.039Z,15.16
2022-08-08T07:10:08.378Z,15.24
2022-08-08T07:12:42.988Z,15.28
2022-08-08T07:15:32.604Z,15.36
2022-08-08T07:18:35.807Z,15.43
2022-08-08T07:21:01.853Z,15.52
2022-08-08T07:24:01.580Z,15.59
2022-08-08T07:26:35.525Z,15.67
2022-08-08T07:29:08.110Z,15.74
2022-08-08T07:31:41.809Z,15.80
2022-08-08T07:34:20.307Z,15.88
2022-08-08T07:37:11.630Z,15.95
2022-08-08T07:39:57.690Z,16.00
2022-08-08T07:42:33.440Z,16.12
2022-08-08T07:45:03.143Z,16.30
2022-08-08T07:47:38.409Z,16.49
2022-08-08T07:50:08.510Z,16.67
2022-08-08T07:52:43.818Z,16.84
2022-08-08T07:55:19.180Z,17.02
2022-08-08T07:57:52.713Z,17.17
2022-08-08T08:00:23.525Z,17.32
2022-08-08T08:02:56.928Z,17.46
2022-08-08T08:05:33.594Z,17.57
2022-08-08T08:08:06.297Z,17.72
2022-08-08T08:10:38.530Z,17.82
2022-08-08T08:13:25.843Z,17.93
2022-08-08T08:16:12.673Z,18.06
2022-08-08T08:18:55.490Z,18.18
2022-08-08T08:21:35.324Z,18.30
2022-08-08T08:24:15.607Z,18.43
2022-08-08T08:26:52.472Z,18.56
2022-08-08T08:29:24.243Z,18.70
2022-08-08T08:31:57.860Z,18.83
2022-08-08T08:34:32.633Z,18.94
2022-08-08T08:37:07.396Z,19.03
2022-08-08T08:39:59.323Z,19.15
2022-08-08T08:42:31.657Z,19.25
2022-08-08T08:45:16.501Z,19.33
2022-08-08T08:47:53.489Z,19.44
2022-08-08T08:50:33.910Z,19.53
2022-08-08T08:53:54.089Z,19.62
2022-08-08T08:56:02.128Z,19.73
2022-08-08T08:58:33.728Z,19.82
2022-08-08T09:01:08.665Z,19.88
2022-08-08T09:03:46.474Z,19.94
2022-08-08T09:06:28.422Z,20.04
2022-08-08T09:09:07.110Z,20.12
2022-08-08T09:11:47.348Z,20.23
2022-08-08T09:14:27.429Z,20.33
2022-08-08T09:16:56.152Z,20.39
2022-08-08T09:21:59.116Z,20.47
2022-08-08T09:22:12.763Z,20.54
2022-08-08T09:24:55.973Z,20.65
2022-08-08T09:27:55.677Z,20.76
2022-08-08T09:30:17.526Z,20.86
2022-08-08T09:33:12.510Z,20.96
2022-08-08T09:35:50.206Z,21.06
2022-08-08T09:38:32.980Z,21.15
2022-08-08T09:41:07.258Z,21.19
2022-08-08T09:44:05.233Z,21.27
2022-08-08T09:46:36.034Z,21.29
2022-08-08T09:49:41.179Z,21.35
2022-08-08T09:52:06.976Z,21.42
2022-08-08T09:54:44.620Z,21.47
2022-08-08T09:57:17.632Z,21.54
2022-08-08T10:00:28.664Z,21.54
2022-08-08T10:02:45.075Z,21.66
2022-08-08T10:05:23.111Z,21.78
2022-08-08T10:08:00.083Z,21.79
2022-08-08T10:10:32.381Z,21.86
2022-08-08T10:13:14.414Z,21.91
2022-08-08T10:16:00.585Z,22.01
2022-08-08T10:18:32.913Z,22.12
2022-08-08T10:21:08.363Z,22.14
2022-08-08T10:23:59.286Z,22.20
2022-08-08T10:26:58.615Z,22.12
2022-08-08T10:29:56.812Z,22.19
2022-08-08T10:32:37.464Z,22.22
2022-08-08T10:35:11.786Z,22.14
2022-08-08T10:37:59.065Z,22.17
2022-08-08T10:40:30.786Z,22.33
2022-08-08T10:43:05.380Z,22.48
2022-08-08T10:45:55.663Z,22.48
2022-08-08T10:48:56.557Z,22.57
2022-08-08T10:51:26.279Z,22.65
2022-08-08T10:53:59.833Z,22.76
2022-08-08T10:56:35.623Z,22.83
2022-08-08T10:59:12.213Z,22.92
2022-08-08T11:01:54.730Z,22.98
2022-08-08T11:04:39.103Z,23.01
2022-08-08T11:07:15.089Z,23.11
2022-08-08T11:10:00.626Z,23.30
2022-08-08T11:12:32.081Z,23.38
2022-08-08T11:15:07.677Z,23.47
2022-08-08T11:18:00.886Z,23.55
2022-08-08T11:20:36.693Z,23.62
2022-08-08T11:23:07.734Z,23.68
2022-08-08T11:25:52.237Z,23.76
2022-08-08T11:28:30.367Z,23.86
2022-08-08T11:31:03.735Z,24.00
2022-08-08T11:33:51.474Z,24.08
2022-08-08T11:36:27.834Z,24.15
2022-08-08T11:38:58.876Z,24.23
2022-08-08T11:41:32.536Z,24.27
2022-08-08T11:44:03.146Z,24.36
2022-08-08T11:46:35.255Z,24.47
2022-08-08T11:49:09.580Z,24.61
2022-08-08T11:51:50.361Z,24.74
2022-08-08T11:54:33.961Z,24.82
2022-08-08T11:57:14.650Z,25.00
2022-08-08T12:00:01.081Z,25.15
2022-08-08T12:02:41.936Z,25.36
2022-08-08T12:05:14.456Z,25.50
2022-08-08T12:07:51.428Z,25.63
2022-08-08T12:10:21.658Z,25.71
2022-08-08T12:12:51.767Z,25.82
2022-08-08T12:15:39.898Z,25.87
2022-08-08T12:18:21.558Z,25.98
2022-08-08T12:21:21.502Z,26.02
2022-08-08T12:24:06.730Z,25.96
2022-08-08T12:26:41.638Z,25.95
2022-08-08T12:29:25.857Z,26.16
2022-08-08T12:32:31.149Z,26.34
2022-08-08T12:35:13.518Z,26.47
2022-08-08T12:38:01.010Z,26.44
2022-08-08T12:40:54.190Z,26.43
2022-08-08T12:43:32.832Z,26.40
2022-08-08T12:46:19.383Z,26.37
2022-08-08T12:51:58.407Z,26.68
2022-08-08T12:54:33.172Z,26.79
2022-08-08T12:57:17.293Z,27.01
2022-08-08T13:00:03.790Z,27.06
2022-08-08T13:02:37.850Z,27.18
2022-08-08T13:05:26.539Z,27.30
2022-08-08T13:08:16.312Z,27.37
2022-08-08T13:10:56.417Z,27.36
2022-08-08T13:13:35.158Z,27.32
2022-08-08T13:16:18.885Z,27.38
2022-08-08T13:18:56.357Z,27.48
2022-08-08T13:21:48.641Z,27.58
2022-08-08T13:24:18.787Z,27.62
2022-08-08T13:27:05.536Z,27.75
2022-08-08T13:30:36.261Z,27.75
2022-08-08T13:33:19.526Z,27.70
2022-08-08T13:35:50.685Z,27.65
2022-08-08T13:38:19.650Z,27.71
2022-08-08T13:40:48.371Z,27.83
2022-08-08T13:43:20.929Z,27.98
2022-08-08T13:45:49.063Z,28.14
2022-08-08T13:48:25.429Z,28.29
2022-08-08T13:51:24.585Z,28.34
2022-08-08T13:53:53.291Z,28.22
2022-08-08T13:56:32.497Z,28.19
2022-08-08T13:59:00.581Z,28.28
2022-08-08T14:01:32.987Z,28.35
2022-08-08T14:04:25.979Z,28.49
2022-08-08T14:07:01.570Z,28.48
2022-08-08T14:10:04.809Z,28.43
2022-08-08T14:12:28.440Z,28.57
2022-08-08T14:14:57.076Z,28.68
2022-08-08T14:17:58.007Z,28.70
2022-08-08T14:20:57.910Z,28.81
2022-08-08T14:23:10.303Z,28.87
2022-08-08T14:25:46.560Z,28.84
2022-08-08T14:28:23.673Z,28.76
2022-08-08T14:31:09.393Z,28.86
2022-08-08T14:33:39.157Z,28.98
2022-08-08T14:36:13.347Z,29.10
2022-08-08T14:38:52.367Z,29.14
2022-08-08T14:41:45.174Z,29.25
2022-08-08T14:44:22.489Z,29.22
2022-08-08T14:47:00.397Z,29.28
2022-08-08T14:49:51.383Z,29.38
2022-08-08T14:52:25.444Z,29.39
2022-08-08T14:54:53.442Z,29.44
2022-08-08T14:58:02.505Z,29.51
2022-08-08T15:00:11.524Z,29.65
2022-08-08T15:02:58.580Z,29.65
2022-08-08T15:05:42.779Z,29.65
2022-08-08T15:08:22.216Z,29.65
2022-08-08T15:11:02.214Z,29.69
2022-08-08T15:13:35.220Z,29.77
2022-08-08T15:16:11.755Z,29.71
2022-08-08T15:18:44.100Z,29.66
2022-08-08T15:21:18.321Z,29.74
2022-08-08T15:23:50.655Z,29.98
2022-08-08T15:26:20.387Z,30.14
2022-08-08T15:28:53.177Z,30.08
2022-08-08T15:31:49.045Z,30.12
2022-08-08T15:34:29.680Z,30.35
2022-08-08T15:36:59.251Z,30.64
2022-08-08T15:39:31.694Z,30.82
2022-08-08T15:42:10.253Z,30.90
2022-08-08T15:44:39.157Z,30.90
2022-08-08T15:47:15.438Z,30.83
2022-08-08T15:49:48.365Z,30.84
2022-08-08T15:52:20.683Z,30.93
2022-08-08T15:54:52.518Z,31.18
2022-08-08T15:57:21.558Z,31.42
2022-08-08T16:00:05.805Z,31.58
2022-08-08T16:02:43.709Z,31.57
2022-08-08T16:05:13.822Z,31.41
2022-08-08T16:07:52.782Z,31.57
2022-08-08T16:13:09.459Z,31.76
2022-08-08T16:13:30.619Z,31.89
2022-08-08T16:16:09.678Z,32.19
2022-08-08T16:18:53.154Z,32.44
2022-08-08T16:21:29.020Z,32.24
2022-08-08T16:23:57.891Z,31.95
2022-08-08T16:26:34.391Z,31.99
2022-08-08T16:29:06.991Z,32.25
2022-08-08T16:31:37.275Z,32.42
2022-08-08T16:34:06.184Z,32.45
2022-08-08T16:36:34.463Z,32.41
2022-08-08T16:39:10.003Z,32.27
2022-08-08T16:41:51.253Z,32.35
2022-08-08T16:44:28.003Z,32.34
2022-08-08T16:47:17.211Z,32.31
2022-08-08T16:49:47.672Z,32.47
2022-08-08T16:55:04.907Z,32.47
2022-08-08T16:55:34.195Z,32.48
2022-08-08T16:58:14.625Z,32.55
2022-08-08T17:00:48.969Z,32.93
2022-08-08T17:03:25.476Z,33.17
2022-08-08T17:06:37.742Z,33.35
2022-08-08T17:08:57.073Z,33.30
2022-08-08T17:11:28.243Z,33.41
2022-08-08T17:14:01.634Z,33.59
2022-08-08T17:16:30.093Z,33.67
2022-08-08T17:19:00.670Z,33.68
2022-08-08T17:21:41.138Z,33.75
2022-08-08T17:24:27.059Z,33.80
2022-08-08T17:26:57.875Z,33.72
2022-08-08T17:29:33.999Z,33.86
2022-08-08T17:32:08.038Z,33.82
2022-08-08T17:35:27.733Z,33.84
2022-08-08T17:37:27.602Z,33.88
2022-08-08T17:40:11.351Z,33.99
2022-08-08T17:42:47.397Z,33.94
2022-08-08T17:45:23.660Z,33.91
2022-08-08T17:47:54.079Z,33.87
2022-08-08T17:50:22.802Z,34.20
2022-08-08T17:52:51.158Z,34.50
2022-08-08T17:56:05.260Z,34.76
2022-08-08T17:58:07.441Z,34.73
2022-08-08T18:00:41.067Z,34.68
2022-08-08T18:03:13.133Z,34.82
2022-08-08T18:05:48.471Z,34.79
2022-08-08T18:08:24.434Z,34.43
2022-08-08T18:11:06.518Z,34.39
2022-08-08T18:13:41.505Z,34.18
2022-08-08T18:16:12.817Z,34.10
2022-08-08T18:18:53.546Z,33.90
2022-08-08T18:21:35.392Z,33.67
2022-08-08T18:24:17.704Z,33.35
2022-08-08T18:26:53.958Z,33.09
2022-08-08T18:29:27.474Z,33.08
2022-08-08T18:32:00.651Z,33.25
2022-08-08T18:34:33.080Z,33.27
2022-08-08T18:37:04.582Z,32.75
2022-08-08T18:39:36.381Z,31.59
2022-08-08T18:42:12.975Z,30.37
2022-08-08T18:44:55.742Z,29.16
2022-08-08T18:47:28.230Z,28.01
2022-08-08T18:50:00.193Z,27.22
2022-08-08T18:52:33.651Z,26.59
2022-08-08T18:55:10.271Z,26.04
2022-08-08T18:57:44.954Z,25.58
2022-08-08T19:00:19.557Z,25.25
2022-08-08T19:02:55.687Z,24.94
2022-08-08T19:05:32.390Z,24.73
2022-08-08T19:08:24.110Z,24.58
2022-08-08T19:10:56.599Z,24.43
2022-08-08T19:13:25.420Z,24.30
2022-08-08T19:16:15.878Z,24.06
2022-08-08T19:19:00.493Z,23.86
2022-08-08T19:21:33.415Z,23.72
2022-08-08T19:24:48.115Z,23.55
2022-08-08T19:27:04.809Z,23.38
2022-08-08T19:29:40.715Z,23.19
2022-08-08T19:32:13.184Z,23.04
2022-08-08T19:34:51.919Z,22.88
2022-08-08T19:37:43.577Z,22.71
2022-08-08T19:40:14.527Z,22.55
2022-08-08T19:42:44.506Z,22.43
2022-08-08T19:45:14.210Z,22.34
2022-08-08T19:48:01.590Z,22.21
2022-08-08T19:50:33.199Z,22.12
2022-08-08T19:53:01.475Z,22.04
2022-08-08T19:55:33.955Z,21.97
2022-08-08T19:58:04.079Z,21.87
2022-08-08T20:00:37.187Z,21.80
2022-08-08T20:03:15.291Z,21.75
2022-08-08T20:06:14.152Z,21.68
2022-08-08T20:08:48.131Z,21.61
2022-08-08T20:11:16.738Z,21.56
2022-08-08T20:14:33.510Z,21.52
2022-08-08T20:16:38.921Z,21.47
2022-08-08T20:19:08.990Z,21.40
2022-08-08T20:21:38.981Z,21.34
2022-08-08T20:24:08.927Z,21.29
2022-08-08T20:26:41.627Z,21.26
2022-08-08T20:29:15.244Z,21.23
2022-08-08T20:32:06.985Z,21.14
2022-08-08T20:34:32.119Z,21.08
2022-08-08T20:37:03.533Z,21.05
2022-08-08T20:39:33.727Z,21.03
2022-08-08T20:42:09.909Z,21.02
2022-08-08T20:44:38.849Z,21.00
2022-08-08T20:47:15.643Z,20.95
2022-08-08T20:49:55.833Z,20.91
2022-08-08T20:52:30.023Z,20.89
2022-08-08T20:54:58.953Z,20.86
2022-08-08T20:57:28.076Z,20.83
2022-08-08T20:59:56.384Z,20.79
2022-08-08T21:02:25.336Z,20.79
2022-08-08T21:05:01.033Z,20.79
2022-08-08T21:08:07.788Z,20.80
2022-08-08T21:10:21.312Z,20.82
2022-08-08T21:12:56.395Z,20.83
2022-08-08T21:16:06.290Z,20.83
2022-08-08T21:18:14.738Z,20.82
2022-08-08T21:20:43.212Z,20.80
2022-08-08T21:23:59.080Z,20.78
2022-08-08T21:26:09.034Z,20.77
2022-08-08T21:28:37.440Z,20.75
2022-08-08T21:31:22.530Z,20.69
2022-08-08T21:33:51.986Z,20.67
2022-08-08T21:36:28.903Z,20.64
2022-08-08T21:38:59.207Z,20.59
2022-08-08T21:41:42.919Z,20.54
2022-08-08T21:44:20.154Z,20.49
2022-08-08T21:48:06.767Z,20.44
2022-08-08T21:49:36.836Z,20.41
2022-08-08T21:54:31.837Z,20.37
2022-08-08T21:55:03.189Z,20.30
2022-08-08T21:57:42.578Z,20.26
2022-08-08T22:00:14.311Z,20.22
2022-08-08T22:02:44.207Z,20.19
2022-08-08T22:05:14.597Z,20.15
2022-08-08T22:07:48.076Z,20.11
2022-08-08T22:10:31.917Z,20.07
2022-08-08T22:13:18.781Z,20.04
2022-08-08T22:15:59.136Z,20.00
2022-08-08T22:18:30.028Z,19.97
2022-08-08T22:21:01.514Z,19.93
2022-08-08T22:23:43.421Z,19.92
2022-08-08T22:26:29.392Z,19.87
2022-08-08T22:29:13.060Z,19.84
2022-08-08T22:31:58.731Z,19.81
2022-08-08T22:34:30.399Z,19.79
2022-08-08T22:36:58.486Z,19.76
2022-08-08T22:39:28.360Z,19.73
2022-08-08T22:42:27.072Z,19.69
2022-08-08T22:44:56.181Z,19.64
2022-08-08T22:47:24.570Z,19.59
2022-08-08T22:50:25.064Z,19.54
2022-08-08T22:54:27.603Z,19.50
2022-08-08T22:55:59.041Z,19.47
2022-08-08T22:58:33.333Z,19.42
2022-08-08T23:01:02.234Z,19.40
2022-08-08T23:03:54.529Z,19.35
2022-08-08T23:06:24.042Z,19.32
2022-08-08T23:08:55.593Z,19.28
2022-08-08T23:11:58.009Z,19.25
2022-08-08T23:14:19.141Z,19.24
2022-08-08T23:16:57.910Z,19.25
2022-08-08T23:19:27.970Z,19.24
2022-08-08T23:22:04.152Z,19.21
2022-08-08T23:24:36.560Z,19.19
2022-08-08T23:27:06.005Z,19.18
2022-08-08T23:29:35.460Z,19.16
2022-08-08T23:32:04.658Z,19.10
2022-08-08T23:34:33.775Z,19.00
2022-08-08T23:37:02.615Z,18.93
2022-08-08T23:39:41.724Z,18.91
2022-08-08T23:42:10.663Z,18.89
2022-08-08T23:44:40.835Z,18.88
2022-08-08T23:49:00.409Z,18.86
2022-08-08T23:50:01.061Z,18.84
2022-08-08T23:52:31.632Z,18.80
2022-08-08T23:55:00.367Z,18.77
2022-08-08T23:57:52.208Z,18.73
